Time;durP1;ratioP1;P1;durP2;ratioP2;P2;SDS_P1;SDS_P2;PMS_P1;PMS_P2;Temp;Humidity;BMP_temperature;BMP_pressure;BME280_temperature;BME280_humidity;BME280_pressure;Samples;Min_cycle;Max_cycle;Signal;HPM_P1;HPM_P2
2022/07/12 00:01:41;;;;;;;1.30;1.20;;;18.90;79.20;;;;;;4995538;28;20487;-70
2022/07/12 00:04:08;;;;;;;1.70;1.30;;;18.90;79.30;;;;;;4995573;28;20452;-70
2022/07/12 00:06:36;;;;;;;1.67;1.27;;;18.90;79.30;;;;;;4995544;28;20464;-69
2022/07/12 00:09:02;;;;;;;3.10;1.30;;;18.90;79.40;;;;;;4995425;28;20455;-69
2022/07/12 00:11:29;;;;;;;2.00;1.30;;;18.80;79.30;;;;;;4995362;28;20451;-70
2022/07/12 00:13:56;;;;;;;3.20;1.40;;;18.80;79.10;;;;;;4995038;28;20452;-70
2022/07/12 00:16:23;;;;;;;2.17;1.40;;;18.80;79.00;;;;;;4995440;28;20464;-69
2022/07/12 00:18:50;;;;;;;1.17;1.07;;;18.70;79.00;;;;;;4995350;28;20448;-69
2022/07/12 00:21:17;;;;;;;4.57;1.20;;;18.70;79.10;;;;;;4995330;28;20491;-69
2022/07/12 00:23:45;;;;;;;1.83;1.37;;;18.70;79.10;;;;;;4995242;28;20455;-70
2022/07/12 00:26:11;;;;;;;2.60;1.27;;;18.60;79.00;;;;;;4994807;28;20468;-69
2022/07/12 00:28:38;;;;;;;2.40;1.10;;;18.60;78.90;;;;;;4995358;28;20448;-70
2022/07/12 00:31:05;;;;;;;1.30;1.20;;;18.50;78.70;;;;;;4994983;28;20451;-69
2022/07/12 00:33:32;;;;;;;4.83;1.27;;;18.50;78.50;;;;;;4995150;28;20424;-70
2022/07/12 00:35:59;;;;;;;3.23;1.30;;;18.40;78.40;;;;;;4994646;28;20845;-69
2022/07/12 00:38:25;;;;;;;1.30;1.20;;;18.40;78.60;;;;;;4994982;28;20444;-68
2022/07/12 00:40:54;;;;;;;2.00;1.83;;;18.40;78.70;;;;;;4994901;28;20452;-68
2022/07/12 00:43:20;;;;;;;1.97;1.40;;;18.40;78.80;;;;;;4995341;28;20455;-68
2022/07/12 00:45:47;;;;;;;2.43;1.23;;;18.40;78.90;;;;;;4994371;28;20837;-68
2022/07/12 00:48:14;;;;;;;4.10;1.60;;;18.30;78.60;;;;;;4994353;28;20943;-68
2022/07/12 00:50:41;;;;;;;3.80;1.30;;;18.30;78.60;;;;;;4994614;28;20454;-68
2022/07/12 00:53:09;;;;;;;2.20;1.60;;;18.20;78.60;;;;;;4993821;28;20444;-68
2022/07/12 00:55:35;;;;;;;1.30;1.20;;;18.20;78.90;;;;;;4994198;28;20448;-68
2022/07/12 00:58:04;;;;;;;1.40;1.30;;;18.20;79.10;;;;;;4994583;28;20452;-68
2022/07/12 01:00:31;;;;;;;2.60;1.40;;;18.20;79.00;;;;;;4994468;28;20451;-68
2022/07/12 01:02:59;;;;;;;2.33;1.60;;;18.20;78.90;;;;;;4994578;28;20491;-68
2022/07/12 01:05:28;;;;;;;8.43;1.57;;;18.10;79.00;;;;;;4994075;28;20454;-68
2022/07/12 01:07:56;;;;;;;2.40;1.50;;;18.00;78.80;;;;;;4994094;28;20463;-68
2022/07/12 01:10:23;;;;;;;6.53;1.53;;;18.00;78.60;;;;;;4994491;28;20542;-68
2022/07/12 01:12:50;;;;;;;2.17;1.70;;;18.00;78.80;;;;;;4995235;28;20452;-68
2022/07/12 01:15:20;;;;;;;2.23;1.80;;;17.90;78.70;;;;;;4994287;28;20460;-68
2022/07/12 01:17:48;;;;;;;2.20;2.00;;;17.80;78.70;;;;;;4994058;28;20491;-68
2022/07/12 01:20:14;;;;;;;3.53;1.57;;;17.70;78.60;;;;;;4994214;28;20452;-68
2022/07/12 01:22:51;;;;;;;5.10;1.77;;;17.70;78.70;;;;;;4994211;28;20479;-68
2022/07/12 01:25:17;;;;;;;2.10;1.50;;;17.70;79.00;;;;;;4994006;28;20831;-68
2022/07/12 01:27:44;;;;;;;2.40;1.77;;;17.70;79.20;;;;;;4994245;28;20468;-68
2022/07/12 01:30:12;;;;;;;6.00;1.87;;;17.60;79.30;;;;;;4993983;28;20807;-68
2022/07/12 01:32:40;;;;;;;6.73;2.53;;;17.60;79.60;;;;;;4993870;28;20460;-68
2022/07/12 01:35:08;;;;;;;7.47;2.73;;;17.50;79.80;;;;;;4994117;28;20452;-68
2022/07/12 01:37:36;;;;;;;12.80;2.63;;;17.50;80.10;;;;;;4994061;28;20474;-68
2022/07/12 01:40:07;;;;;;;9.57;2.63;;;17.50;80.40;;;;;;4993732;28;20794;-68
2022/07/12 01:42:34;;;;;;;5.80;2.13;;;17.40;81.10;;;;;;4993898;28;20472;-68
2022/07/12 01:45:01;;;;;;;11.50;2.70;;;17.40;80.60;;;;;;4994107;28;20448;-68
2022/07/12 01:47:29;;;;;;;9.90;3.20;;;17.40;80.80;;;;;;4993921;28;20495;-68
2022/07/12 01:49:56;;;;;;;10.07;3.27;;;17.40;80.70;;;;;;4994142;28;20440;-68
2022/07/12 01:52:24;;;;;;;9.07;3.20;;;17.40;80.80;;;;;;4993780;28;20436;-68
2022/07/12 01:54:51;;;;;;;8.60;3.53;;;17.40;81.10;;;;;;4993810;28;20675;-68
2022/07/12 01:57:21;;;;;;;7.87;2.87;;;17.40;81.00;;;;;;4993913;28;20472;-68
2022/07/12 01:59:47;;;;;;;16.03;3.77;;;17.40;81.10;;;;;;4994188;28;20448;-68
2022/07/12 02:02:14;;;;;;;11.93;3.27;;;17.40;81.20;;;;;;4993893;28;20615;-68
2022/07/12 02:04:41;;;;;;;5.80;2.70;;;17.40;81.20;;;;;;4995355;28;20444;-68
2022/07/12 02:07:08;;;;;;;17.47;3.30;;;17.40;81.20;;;;;;4997602;28;20467;-68
2022/07/12 02:09:35;;;;;;;9.60;2.90;;;17.40;81.00;;;;;;4997325;28;20825;-68
2022/07/12 02:12:01;;;;;;;13.53;3.30;;;17.40;81.20;;;;;;4997316;28;20429;-68
2022/07/12 02:14:30;;;;;;;9.87;3.30;;;17.40;81.40;;;;;;4997565;28;20451;-68
2022/07/12 02:16:56;;;;;;;9.33;2.83;;;17.40;81.50;;;;;;4997004;28;20492;-68
2022/07/12 02:19:23;;;;;;;16.20;3.33;;;17.40;81.50;;;;;;4997183;28;20523;-68
2022/07/12 02:21:50;;;;;;;11.57;2.93;;;17.40;81.30;;;;;;4997324;28;20486;-68
2022/07/12 02:24:17;;;;;;;10.90;2.57;;;17.40;81.50;;;;;;4997046;28;20459;-68
2022/07/12 02:26:44;;;;;;;9.60;3.27;;;17.40;81.60;;;;;;4997281;28;20472;-68
2022/07/12 02:29:11;;;;;;;14.20;3.60;;;17.40;81.60;;;;;;4996014;28;20474;-68
2022/07/12 02:31:39;;;;;;;16.90;3.97;;;17.40;81.80;;;;;;4996693;28;20212;-68
2022/07/12 02:34:06;;;;;;;8.83;3.53;;;17.40;82.20;;;;;;4997217;28;20460;-68
2022/07/12 02:36:33;;;;;;;12.33;3.47;;;17.30;82.20;;;;;;4997054;28;20468;-68
2022/07/12 02:39:02;;;;;;;6.70;2.33;;;17.30;82.20;;;;;;4996997;28;20440;-68
2022/07/12 02:41:29;;;;;;;8.50;2.90;;;17.30;82.10;;;;;;4997073;28;20470;-68
2022/07/12 02:43:56;;;;;;;15.40;3.60;;;17.30;82.10;;;;;;4996789;28;20943;-68
2022/07/12 02:46:23;;;;;;;11.37;3.33;;;17.30;82.10;;;;;;4996687;28;20567;-67
2022/07/12 02:48:52;;;;;;;12.10;3.27;;;17.30;82.10;;;;;;4996934;28;20459;-67
2022/07/12 02:51:19;;;;;;;9.00;2.60;;;17.30;82.20;;;;;;4996890;28;20456;-66
2022/07/12 02:53:45;;;;;;;11.20;3.07;;;17.30;82.00;;;;;;4996513;28;20938;-66
2022/07/12 02:56:12;;;;;;;9.90;2.30;;;17.30;81.60;;;;;;4996736;28;20540;-66
2022/07/12 02:58:39;;;;;;;11.00;2.67;;;17.20;81.30;;;;;;4996690;28;20459;-66
2022/07/12 03:01:06;;;;;;;12.23;2.83;;;17.20;80.90;;;;;;4996357;28;20451;-67
2022/07/12 03:03:33;;;;;;;5.57;2.93;;;17.10;80.20;;;;;;4996582;28;20534;-66
2022/07/12 03:06:01;;;;;;;11.37;3.10;;;17.00;80.00;;;;;;4996487;28;20480;-67
2022/07/12 03:08:28;;;;;;;8.80;3.20;;;17.00;80.10;;;;;;4996313;28;20452;-67
2022/07/12 03:10:54;;;;;;;14.53;4.60;;;16.90;79.80;;;;;;4996260;28;20448;-66
2022/07/12 03:13:21;;;;;;;18.23;4.10;;;16.90;80.00;;;;;;4996185;28;20949;-66
2022/07/12 03:15:51;;;;;;;18.20;4.40;;;16.80;80.00;;;;;;4995180;28;21001;-67
2022/07/12 03:18:18;;;;;;;15.50;4.40;;;16.80;80.00;;;;;;4996082;28;20452;-66
2022/07/12 03:20:44;;;;;;;20.47;4.03;;;16.70;79.70;;;;;;4996115;28;20942;-66
2022/07/12 03:23:13;;;;;;;22.50;3.90;;;16.70;79.80;;;;;;4996200;28;20512;-66
2022/07/12 03:25:39;;;;;;;18.00;3.80;;;16.70;79.90;;;;;;4995857;28;20491;-67
2022/07/12 03:28:06;;;;;;;15.73;3.77;;;16.60;80.10;;;;;;4996203;28;20463;-66
2022/07/12 03:30:33;;;;;;;13.03;3.10;;;16.60;80.30;;;;;;4995825;28;20444;-67
2022/07/12 03:32:59;;;;;;;13.07;3.47;;;16.60;80.40;;;;;;4995772;28;20482;-66
2022/07/12 03:35:26;;;;;;;24.63;4.07;;;16.60;80.80;;;;;;4995735;28;20452;-66
2022/07/12 03:37:53;;;;;;;15.60;3.67;;;16.60;81.00;;;;;;4995695;28;20459;-66
2022/07/12 03:40:22;;;;;;;10.03;3.27;;;16.60;81.10;;;;;;4995807;28;21000;-66
2022/07/12 03:42:50;;;;;;;13.70;3.20;;;16.60;81.00;;;;;;4995709;28;20480;-66
2022/07/12 03:45:17;;;;;;;16.50;4.27;;;16.60;81.10;;;;;;4995804;28;20481;-66
2022/07/12 03:47:43;;;;;;;18.37;4.50;;;16.60;81.30;;;;;;4995564;28;20469;-66
2022/07/12 03:50:12;;;;;;;16.33;3.53;;;16.60;81.40;;;;;;4995531;28;20961;-66
2022/07/12 03:52:40;;;;;;;9.20;3.00;;;16.60;81.70;;;;;;4995764;28;20540;-66
2022/07/12 03:55:08;;;;;;;14.70;4.00;;;16.60;81.70;;;;;;4995505;28;20823;-66
2022/07/12 03:57:36;;;;;;;17.30;4.90;;;16.60;81.70;;;;;;4996271;28;20474;-66
2022/07/12 04:00:06;;;;;;;10.60;4.20;;;16.50;81.50;;;;;;4995334;28;20823;-66
2022/07/12 04:02:32;;;;;;;20.87;5.77;;;16.50;81.60;;;;;;4995445;28;20502;-66
2022/07/12 04:04:59;;;;;;;17.30;4.83;;;16.50;81.60;;;;;;4995186;28;20816;-66
2022/07/12 04:07:26;;;;;;;17.30;5.17;;;16.50;81.50;;;;;;4995386;28;20464;-67
2022/07/12 04:09:52;;;;;;;14.17;4.47;;;16.50;81.40;;;;;;4995423;28;20452;-67
2022/07/12 04:12:19;;;;;;;14.40;4.80;;;16.40;81.20;;;;;;4995092;28;20954;-67
2022/07/12 04:14:47;;;;;;;12.53;3.77;;;16.40;81.40;;;;;;4994965;28;20934;-67
2022/07/12 04:17:14;;;;;;;10.43;4.10;;;16.40;81.70;;;;;;4995052;28;20498;-67
2022/07/12 04:19:41;;;;;;;12.93;4.13;;;16.40;82.00;;;;;;4995509;28;20454;-67
2022/07/12 04:22:08;;;;;;;12.30;5.40;;;16.40;82.20;;;;;;4994743;28;20888;-67
2022/07/12 04:24:34;;;;;;;7.80;4.27;;;16.30;82.30;;;;;;4994928;28;20950;-67
2022/07/12 04:27:01;;;;;;;19.40;5.23;;;16.30;82.40;;;;;;4994674;28;20855;-67
2022/07/12 04:29:28;;;;;;;9.47;4.40;;;16.30;82.80;;;;;;4995299;28;20428;-67
2022/07/12 04:31:56;;;;;;;13.00;5.03;;;16.30;83.00;;;;;;4994918;28;20468;-67
2022/07/12 04:34:23;;;;;;;12.63;3.83;;;16.30;83.10;;;;;;4994656;28;20802;-67
2022/07/12 04:36:49;;;;;;;12.13;3.60;;;16.40;83.60;;;;;;4994867;28;20468;-67
2022/07/12 04:39:16;;;;;;;9.23;4.23;;;16.40;83.90;;;;;;4994982;28;20456;-67
2022/07/12 04:41:43;;;;;;;9.30;3.90;;;16.40;84.10;;;;;;4995069;28;20799;-67
2022/07/12 04:44:10;;;;;;;8.00;3.83;;;16.40;84.40;;;;;;4994830;28;20486;-67
2022/07/12 04:46:37;;;;;;;13.30;4.20;;;16.50;84.80;;;;;;4994688;28;20471;-67
2022/07/12 04:49:06;;;;;;;13.67;4.70;;;16.60;85.20;;;;;;4994958;28;20452;-67
2022/07/12 04:51:33;;;;;;;8.93;4.77;;;16.60;85.50;;;;;;4994783;28;20460;-67
2022/07/12 04:53:59;;;;;;;17.80;5.63;;;16.60;85.90;;;;;;4994704;28;20440;-67
2022/07/12 04:56:26;;;;;;;8.23;4.60;;;16.60;86.20;;;;;;4994601;28;20464;-67
2022/07/12 04:58:53;;;;;;;7.23;3.87;;;16.60;86.50;;;;;;4994614;28;20439;-67
2022/07/12 05:01:20;;;;;;;10.93;4.30;;;16.70;86.90;;;;;;4994458;28;20463;-67
2022/07/12 05:03:47;;;;;;;11.87;4.77;;;16.70;87.20;;;;;;4994431;28;20487;-67
2022/07/12 05:06:15;;;;;;;9.60;4.73;;;16.80;87.80;;;;;;4994479;28;20503;-67
2022/07/12 05:08:41;;;;;;;9.87;4.30;;;16.80;88.20;;;;;;4994345;28;20478;-67
2022/07/12 05:11:08;;;;;;;11.40;5.33;;;16.90;88.60;;;;;;4994094;28;20958;-67
2022/07/12 05:13:35;;;;;;;7.30;5.70;;;16.90;88.70;;;;;;4994351;28;20456;-67
2022/07/12 05:16:02;;;;;;;10.80;6.70;;;17.00;89.90;;;;;;4993786;28;20494;-67
2022/07/12 05:18:29;;;;;;;8.03;5.73;;;17.10;90.60;;;;;;4993941;28;20957;-67
2022/07/12 05:20:56;;;;;;;11.20;6.90;;;17.20;91.10;;;;;;4994266;28;20539;-67
2022/07/12 05:23:24;;;;;;;7.40;6.70;;;17.30;91.40;;;;;;4993842;28;20993;-67
2022/07/12 05:25:51;;;;;;;10.03;6.47;;;17.40;91.90;;;;;;4994211;28;20490;-67
2022/07/12 05:28:17;;;;;;;7.43;5.80;;;17.60;92.10;;;;;;4994305;28;20487;-67
2022/07/12 05:30:44;;;;;;;11.77;7.80;;;17.60;92.30;;;;;;4994171;28;20447;-67
2022/07/12 05:33:12;;;;;;;8.87;7.93;;;17.70;92.40;;;;;;4993813;28;20456;-67
2022/07/12 05:35:39;;;;;;;8.17;7.47;;;17.80;92.60;;;;;;4993755;28;20946;-68
2022/07/12 05:38:05;;;;;;;10.37;8.00;;;17.80;93.10;;;;;;4994086;28;20864;-67
2022/07/12 05:40:34;;;;;;;10.53;7.77;;;17.90;93.00;;;;;;4996617;28;20460;-67
2022/07/12 05:43:01;;;;;;;9.73;8.03;;;18.00;93.20;;;;;;4997891;28;20582;-67
2022/07/12 05:45:27;;;;;;;8.13;7.17;;;18.00;93.20;;;;;;4997830;28;20941;-67
2022/07/12 05:47:54;;;;;;;9.50;6.70;;;18.00;93.20;;;;;;4998068;28;20467;-67
2022/07/12 05:50:21;;;;;;;11.93;9.20;;;18.10;93.30;;;;;;4997672;28;20472;-68
2022/07/12 05:55:33;;;;;;;9.43;5.90;;;18.30;93.40;;;;;;4997907;28;20412;-67
2022/07/12 05:58:00;;;;;;;10.83;6.33;;;18.40;93.40;;;;;;4997870;28;20456;-67
2022/07/12 06:00:27;;;;;;;9.10;6.00;;;18.50;92.90;;;;;;4997806;28;20443;-68
2022/07/12 06:02:53;;;;;;;9.73;7.77;;;18.60;92.50;;;;;;4997732;28;20487;-67
2022/07/12 06:05:20;;;;;;;10.13;7.00;;;18.70;93.10;;;;;;4997499;28;20456;-67
2022/07/12 06:07:47;;;;;;;11.63;7.93;;;18.70;92.90;;;;;;4997599;28;20476;-67
2022/07/12 06:10:14;;;;;;;10.37;7.80;;;18.90;92.40;;;;;;4997579;28;20448;-68
2022/07/12 06:12:42;;;;;;;11.03;7.60;;;19.00;92.70;;;;;;4997574;28;20440;-67
2022/07/12 06:15:09;;;;;;;7.60;6.40;;;19.10;92.40;;;;;;4997573;28;20444;-67
2022/07/12 06:17:36;;;;;;;6.90;5.80;;;19.20;92.40;;;;;;4997609;28;20546;-67
2022/07/12 06:20:04;;;;;;;8.93;7.67;;;19.30;92.10;;;;;;4997459;28;20454;-68
2022/07/12 06:22:30;;;;;;;10.30;8.07;;;19.40;91.70;;;;;;4997389;28;20476;-67
2022/07/12 06:24:57;;;;;;;9.77;8.77;;;19.50;91.80;;;;;;4997314;28;20488;-67
2022/07/12 06:27:24;;;;;;;5.97;5.30;;;19.70;91.90;;;;;;4996956;28;20982;-68
2022/07/12 06:29:52;;;;;;;7.97;7.37;;;19.80;91.40;;;;;;4997402;28;20448;-67
2022/07/12 06:32:19;;;;;;;11.83;7.10;;;20.00;91.00;;;;;;4996966;28;20958;-67
2022/07/12 06:34:46;;;;;;;8.70;7.50;;;20.20;91.30;;;;;;4997286;28;20455;-67
2022/07/12 06:37:14;;;;;;;8.97;7.30;;;20.30;90.90;;;;;;4997159;28;20468;-67
2022/07/12 06:39:41;;;;;;;8.57;6.27;;;20.50;90.90;;;;;;4997045;28;20448;-68
2022/07/12 06:42:08;;;;;;;7.10;6.50;;;20.60;90.60;;;;;;4997067;28;20487;-68
2022/07/12 06:44:35;;;;;;;6.33;5.73;;;20.80;90.60;;;;;;4996842;28;20509;-68
2022/07/12 06:47:04;;;;;;;9.00;8.20;;;21.00;90.60;;;;;;4996629;28;21034;-67
2022/07/12 06:49:31;;;;;;;6.90;6.30;;;21.20;90.20;;;;;;4996688;28;20510;-67
2022/07/12 06:51:57;;;;;;;5.37;4.20;;;21.30;88.20;;;;;;4995582;28;20459;-67
2022/07/12 06:54:25;;;;;;;6.87;6.17;;;21.50;86.50;;;;;;4996922;28;20448;-67
2022/07/12 06:56:51;;;;;;;8.50;7.80;;;21.60;84.40;;;;;;4996806;28;20469;-67
2022/07/12 06:59:19;;;;;;;9.67;8.03;;;21.80;85.80;;;;;;4996724;28;20448;-67
2022/07/12 07:01:45;;;;;;;9.77;8.73;;;22.00;86.80;;;;;;4996649;28;20455;-67
2022/07/12 07:04:14;;;;;;;10.07;8.63;;;22.10;86.40;;;;;;4996599;28;20479;-67
2022/07/12 07:06:41;;;;;;;6.93;5.73;;;22.40;85.80;;;;;;4997335;28;20464;-68
2022/07/12 07:09:07;;;;;;;7.80;7.10;;;22.60;84.60;;;;;;4996565;28;20444;-68
2022/07/12 07:11:35;;;;;;;10.77;7.63;;;22.90;82.20;;;;;;4996243;28;20976;-68
2022/07/12 07:14:02;;;;;;;7.97;6.47;;;23.20;79.60;;;;;;4996517;28;20448;-68
2022/07/12 07:16:29;;;;;;;6.37;5.50;;;23.30;77.10;;;;;;4996344;28;20480;-68
2022/07/12 07:18:56;;;;;;;6.57;4.77;;;23.60;75.20;;;;;;4996371;28;20444;-68
2022/07/12 07:21:24;;;;;;;6.57;5.30;;;23.80;73.60;;;;;;4996102;28;20872;-68
2022/07/12 07:23:51;;;;;;;5.30;4.70;;;24.10;72.40;;;;;;4996949;28;20495;-68
2022/07/12 07:26:18;;;;;;;7.17;5.60;;;24.30;70.80;;;;;;4996123;28;20464;-68
2022/07/12 07:31:29;;;;;;;8.30;6.77;;;24.80;68.90;;;;;;4995670;28;20502;-68
2022/07/12 07:33:55;;;;;;;6.97;6.37;;;24.90;68.40;;;;;;4996074;28;20440;-68
2022/07/12 07:36:24;;;;;;;5.37;4.87;;;25.10;68.60;;;;;;4996074;28;20491;-68
2022/07/12 07:38:50;;;;;;;5.03;4.63;;;25.20;67.00;;;;;;4996063;28;20475;-68
2022/07/12 07:41:17;;;;;;;7.20;6.70;;;25.40;66.00;;;;;;4995944;28;20459;-68
2022/07/12 07:43:44;;;;;;;5.03;4.37;;;25.70;64.60;;;;;;4995965;28;20496;-68
2022/07/12 07:46:10;;;;;;;7.10;5.57;;;25.80;63.10;;;;;;4995995;28;20472;-68
2022/07/12 07:48:37;;;;;;;6.37;5.77;;;26.00;62.00;;;;;;4995523;28;20456;-68
2022/07/12 07:51:04;;;;;;;4.53;4.07;;;26.20;60.90;;;;;;4995450;28;20452;-68
2022/07/12 07:53:32;;;;;;;3.73;3.43;;;26.40;61.20;;;;;;4995788;28;20441;-68
2022/07/12 07:55:59;;;;;;;3.80;3.50;;;26.60;60.40;;;;;;4995652;28;20479;-68
2022/07/12 07:58:26;;;;;;;5.00;4.60;;;26.80;59.60;;;;;;4995652;28;20439;-68
2022/07/12 08:00:53;;;;;;;6.80;6.10;;;27.00;59.10;;;;;;4995441;28;20460;-68
2022/07/12 08:03:20;;;;;;;5.57;5.17;;;27.10;57.80;;;;;;4995168;28;20437;-68
2022/07/12 08:05:47;;;;;;;4.17;3.77;;;27.20;56.70;;;;;;4995412;28;20448;-68
2022/07/12 08:08:14;;;;;;;7.97;6.87;;;27.30;57.20;;;;;;4995378;28;20452;-68
2022/07/12 08:10:42;;;;;;;4.30;4.00;;;27.40;56.80;;;;;;4995069;28;20946;-68
2022/07/12 08:13:09;;;;;;;7.00;6.40;;;27.50;55.40;;;;;;4995127;28;20961;-68
2022/07/12 08:15:36;;;;;;;7.97;7.17;;;27.70;55.40;;;;;;4995023;28;20469;-69
2022/07/12 08:18:03;;;;;;;6.50;5.90;;;27.70;55.90;;;;;;4994895;28;20448;-68
2022/07/12 08:20:30;;;;;;;7.37;6.50;;;27.70;56.40;;;;;;4995357;28;20460;-68
2022/07/12 08:22:57;;;;;;;6.93;6.23;;;27.80;55.20;;;;;;4995178;28;20448;-69
2022/07/12 08:25:23;;;;;;;4.87;4.47;;;27.70;53.80;;;;;;4994846;28;20875;-68
2022/07/12 08:27:52;;;;;;;4.80;4.50;;;27.70;54.00;;;;;;4995165;28;20480;-68
2022/07/12 08:30:18;;;;;;;4.40;4.10;;;27.80;53.80;;;;;;4995352;28;20456;-68
2022/07/12 08:32:45;;;;;;;5.13;4.70;;;28.00;53.70;;;;;;4994988;28;20514;-68
2022/07/12 08:35:13;;;;;;;3.53;3.30;;;28.30;53.40;;;;;;4995066;28;20447;-68
2022/07/12 08:37:40;;;;;;;5.07;3.90;;;28.60;52.40;;;;;;4994897;28;20472;-66
2022/07/12 08:40:09;;;;;;;5.40;5.00;;;28.80;52.10;;;;;;4994960;28;20448;-66
2022/07/12 08:42:36;;;;;;;4.53;4.13;;;29.00;52.60;;;;;;4994882;28;20459;-67
2022/07/12 08:45:06;;;;;;;3.20;2.90;;;29.10;51.20;;;;;;4994762;28;20519;-67
2022/07/12 08:47:32;;;;;;;4.33;4.03;;;29.20;49.90;;;;;;4994774;28;20472;-68
2022/07/12 08:50:17;;;;;;;4.50;3.30;;;29.40;50.20;;;;;;4994706;28;20443;-68
2022/07/12 08:52:45;;;;;;;4.60;4.20;;;29.70;47.70;;;;;;4994742;28;20793;-66
2022/07/12 08:55:20;;;;;;;4.67;4.37;;;29.80;46.50;;;;;;4994633;28;20451;-66
2022/07/12 08:57:47;;;;;;;4.60;3.43;;;29.90;45.80;;;;;;4994475;28;20495;-66
2022/07/12 09:00:16;;;;;;;4.70;4.40;;;30.00;46.20;;;;;;4994511;28;20522;-66
2022/07/12 09:02:50;;;;;;;5.27;3.40;;;30.20;46.10;;;;;;4994344;28;20815;-66
2022/07/12 09:05:18;;;;;;;3.07;2.80;;;30.50;46.20;;;;;;4994455;28;20475;-66
2022/07/12 09:07:46;;;;;;;3.00;2.77;;;30.80;45.90;;;;;;4993947;28;20499;-67
2022/07/12 09:10:14;;;;;;;2.87;2.67;;;31.10;44.80;;;;;;4994437;28;20450;-66
2022/07/12 09:12:42;;;;;;;2.83;2.63;;;31.40;43.10;;;;;;4994181;28;20464;-67
2022/07/12 09:15:21;;;;;;;4.90;3.60;;;31.70;42.80;;;;;;4993684;28;20440;-66
2022/07/12 09:17:57;;;;;;;3.00;2.80;;;32.00;43.50;;;;;;4994500;28;20472;-67
2022/07/12 09:20:25;;;;;;;4.07;3.70;;;32.30;42.30;;;;;;4994151;28;20463;-67
2022/07/12 09:22:54;;;;;;;3.67;2.40;;;32.40;41.20;;;;;;4994273;28;20452;-67
2022/07/12 09:25:21;;;;;;;3.77;2.70;;;32.40;40.50;;;;;;4994101;28;20479;-67
2022/07/12 09:27:50;;;;;;;3.90;3.60;;;32.60;40.00;;;;;;4994178;28;20474;-67
2022/07/12 09:30:19;;;;;;;4.73;3.33;;;32.80;40.30;;;;;;4993866;28;20968;-67
2022/07/12 09:38:22;;;;;;;4.70;3.20;;;33.30;38.50;;;;;;4994253;28;20419;-68
2022/07/12 09:40:50;;;;;;;3.03;2.83;;;33.40;38.00;;;;;;4994159;28;20535;-67
2022/07/12 09:43:18;;;;;;;3.53;3.23;;;33.60;38.00;;;;;;4994118;28;20466;-67
2022/07/12 09:45:48;;;;;;;4.40;3.63;;;33.70;37.10;;;;;;4993650;28;20898;-67
2022/07/12 09:48:16;;;;;;;4.77;3.70;;;33.70;39.00;;;;;;4993987;28;20447;-67
2022/07/12 09:50:46;;;;;;;3.17;2.87;;;33.70;37.80;;;;;;4994031;28;20471;-67
2022/07/12 09:53:20;;;;;;;3.93;2.60;;;33.80;36.80;;;;;;4993988;28;20446;-67
2022/07/12 09:55:52;;;;;;;3.40;2.93;;;34.00;37.00;;;;;;4993586;28;20790;-67
2022/07/12 09:58:26;;;;;;;3.03;2.53;;;34.00;35.70;;;;;;4993967;28;20435;-67
2022/07/12 10:00:55;;;;;;;3.20;2.90;;;34.00;35.70;;;;;;4993948;28;20443;-67
2022/07/12 10:03:23;;;;;;;2.70;2.50;;;34.00;35.70;;;;;;4993588;28;20463;-67
2022/07/12 10:05:52;;;;;;;3.00;2.47;;;34.20;35.10;;;;;;4993746;28;20533;-67
2022/07/12 10:08:21;;;;;;;2.70;2.50;;;34.50;35.50;;;;;;4993863;28;20454;-67
2022/07/12 10:10:49;;;;;;;3.87;2.67;;;34.70;36.00;;;;;;4993798;28;20447;-67
2022/07/12 10:13:16;;;;;;;3.60;2.60;;;34.90;35.20;;;;;;4994045;28;20466;-67
2022/07/12 10:15:44;;;;;;;2.60;2.40;;;35.20;34.70;;;;;;4993612;28;20478;-67
2022/07/12 10:18:18;;;;;;;2.97;2.67;;;35.60;34.20;;;;;;4993479;28;20462;-67
2022/07/12 10:20:46;;;;;;;3.17;2.30;;;36.10;34.00;;;;;;4993591;28;20432;-67
2022/07/12 10:23:38;;;;;;;2.97;2.67;;;36.50;32.70;;;;;;4993872;28;20436;-67
2022/07/12 10:26:38;;;;;;;3.60;2.37;;;36.90;31.40;;;;;;4995413;28;20690;-67
2022/07/12 10:29:06;;;;;;;4.90;3.03;;;37.40;31.50;;;;;;4997112;28;20643;-67
2022/07/12 10:31:35;;;;;;;3.88;1.90;;;37.90;31.40;;;;;;4997177;28;20216;-67
2022/07/12 10:34:22;;;;;;;2.90;2.15;;;38.30;30.80;;;;;;4997377;28;20204;-67
2022/07/12 10:37:10;;;;;;;2.50;1.83;;;38.70;29.40;;;;;;4996868;28;20709;-67
2022/07/12 10:39:37;;;;;;;2.72;2.40;;;39.20;28.10;;;;;;4996878;28;20817;-67
2022/07/12 10:42:17;;;;;;;2.50;2.10;;;39.50;26.30;;;;;;4996858;28;20216;-67
2022/07/12 10:44:46;;;;;;;2.85;2.65;;;39.90;26.70;;;;;;4997126;28;20224;-67
2022/07/12 10:47:15;;;;;;;3.13;1.88;;;40.30;25.00;;;;;;4997091;28;20231;-68
2022/07/12 10:49:50;;;;;;;3.10;1.85;;;40.60;24.30;;;;;;4997735;28;20206;-68
2022/07/12 10:52:23;;;;;;;2.97;1.88;;;40.90;23.50;;;;;;4997091;28;20196;-68
2022/07/12 10:55:17;;;;;;;3.28;2.38;;;41.30;23.30;;;;;;4996943;28;20203;-67
2022/07/12 10:57:46;;;;;;;3.35;2.65;;;41.70;23.70;;;;;;4996581;28;20236;-68
2022/07/12 11:00:14;;;;;;;1.75;1.60;;;41.80;23.60;;;;;;4996761;28;20207;-69
2022/07/12 11:02:43;;;;;;;2.65;2.00;;;41.70;23.60;;;;;;4997092;28;20235;-68
2022/07/12 11:05:11;;;;;;;3.78;2.20;;;41.90;23.90;;;;;;4996639;28;20248;-68
2022/07/12 11:07:38;;;;;;;2.53;2.33;;;42.20;23.20;;;;;;4996695;28;20220;-68
2022/07/12 11:10:06;;;;;;;3.92;2.25;;;42.50;22.90;;;;;;4996617;28;20255;-68
2022/07/12 11:12:34;;;;;;;2.85;1.88;;;42.60;22.50;;;;;;4996601;28;20204;-68
2022/07/12 11:15:01;;;;;;;3.80;2.08;;;42.80;22.60;;;;;;4996543;28;20311;-68
2022/07/12 11:17:30;;;;;;;2.92;1.95;;;43.10;22.50;;;;;;4995798;28;20229;-68
2022/07/12 11:20:09;;;;;;;2.78;2.47;;;43.70;22.30;;;;;;4996427;28;20219;-68
2022/07/12 11:22:39;;;;;;;2.42;2.22;;;44.10;21.10;;;;;;4996153;28;20601;-68
2022/07/12 11:25:08;;;;;;;2.10;1.90;;;44.30;20.20;;;;;;4996318;28;20256;-68
2022/07/12 11:27:36;;;;;;;1.90;1.80;;;44.30;21.00;;;;;;4996193;28;20243;-68
2022/07/12 11:30:04;;;;;;;3.78;2.20;;;44.30;20.00;;;;;;4996379;28;20267;-69
2022/07/12 11:32:39;;;;;;;2.40;2.20;;;44.40;20.10;;;;;;4995833;28;20212;-69
2022/07/12 11:35:18;;;;;;;2.95;2.20;;;44.50;19.70;;;;;;4995804;28;20253;-69
2022/07/12 11:37:51;;;;;;;2.13;2.00;;;44.60;20.10;;;;;;4995041;28;20638;-69
2022/07/12 11:40:23;;;;;;;2.17;1.98;;;44.80;20.60;;;;;;4996061;28;20260;-69
2022/07/12 11:42:54;;;;;;;4.57;2.03;;;45.20;19.20;;;;;;4996169;28;20189;-69
2022/07/12 11:45:21;;;;;;;2.10;1.85;;;45.60;19.20;;;;;;4996005;28;20220;-69
2022/07/12 11:47:48;;;;;;;4.05;2.17;;;45.90;18.30;;;;;;4995877;28;20240;-69
2022/07/12 11:50:18;;;;;;;1.75;1.65;;;46.20;18.20;;;;;;4995559;28;20299;-69
2022/07/12 11:52:45;;;;;;;3.45;1.55;;;46.50;18.90;;;;;;4995828;28;20205;-69
2022/07/12 11:55:13;;;;;;;1.80;1.48;;;46.80;18.50;;;;;;4995600;28;20205;-69
2022/07/12 11:57:40;;;;;;;1.50;1.40;;;47.00;18.60;;;;;;4995600;28;20230;-69
2022/07/12 12:00:15;;;;;;;2.55;1.85;;;47.30;18.80;;;;;;4995459;28;20256;-69
2022/07/12 12:02:42;;;;;;;3.03;1.92;;;47.60;18.60;;;;;;4995317;28;20204;-69
2022/07/12 12:05:09;;;;;;;3.38;1.80;;;47.80;16.60;;;;;;4995520;28;20227;-69
2022/07/12 12:07:36;;;;;;;4.03;2.08;;;47.90;17.20;;;;;;4995516;28;20224;-69
2022/07/12 12:10:05;;;;;;;2.80;2.17;;;47.60;16.30;;;;;;4996168;28;20208;-69
2022/07/12 12:12:42;;;;;;;2.40;1.95;;;47.70;17.30;;;;;;4995517;28;20231;-68
2022/07/12 12:15:11;;;;;;;2.83;2.10;;;47.70;16.90;;;;;;4995371;28;20215;-68
2022/07/12 12:17:43;;;;;;;2.00;1.80;;;47.70;16.60;;;;;;4995649;28;20225;-68
2022/07/12 12:20:12;;;;;;;5.78;2.50;;;47.80;17.00;;;;;;4995528;28;20214;-68
2022/07/12 12:22:39;;;;;;;2.25;1.42;;;48.00;15.70;;;;;;4995160;28;20204;-68
2022/07/12 12:25:12;;;;;;;2.33;1.80;;;48.20;15.80;;;;;;4994869;28;20212;-68
2022/07/12 12:27:44;;;;;;;2.33;1.92;;;48.40;15.80;;;;;;4995094;28;20238;-68
2022/07/12 12:30:11;;;;;;;3.63;1.80;;;48.70;16.00;;;;;;4995563;28;20208;-70
2022/07/12 12:32:49;;;;;;;2.22;2.03;;;49.00;15.70;;;;;;4994785;28;20212;-68
2022/07/12 12:35:17;;;;;;;1.88;1.77;;;49.10;15.40;;;;;;4994752;28;20678;-68
2022/07/12 12:37:52;;;;;;;2.17;1.60;;;48.90;15.70;;;;;;4994740;28;20266;-68
2022/07/12 12:40:23;;;;;;;2.58;1.73;;;48.70;16.00;;;;;;4994721;28;20680;-68
2022/07/12 12:42:52;;;;;;;1.75;1.65;;;48.80;16.60;;;;;;4994836;28;20193;-68
2022/07/12 12:45:20;;;;;;;2.55;1.60;;;49.10;16.30;;;;;;4994851;28;20200;-68
2022/07/12 12:47:58;;;;;;;1.98;1.88;;;49.50;15.80;;;;;;4994792;28;20630;-68
2022/07/12 12:50:41;;;;;;;2.22;1.95;;;49.60;14.60;;;;;;4994900;28;20199;-68
2022/07/12 12:53:13;;;;;;;2.05;1.85;;;49.50;15.30;;;;;;4994797;28;20673;-68
2022/07/12 12:55:40;;;;;;;3.35;1.70;;;49.40;15.20;;;;;;4994514;28;20208;-68
2022/07/12 12:58:08;;;;;;;4.75;1.55;;;49.20;15.20;;;;;;4994611;28;20211;-68
2022/07/12 13:00:39;;;;;;;2.38;2.17;;;48.90;14.90;;;;;;4994607;28;20231;-68
2022/07/12 13:03:06;;;;;;;2.70;1.88;;;48.30;14.90;;;;;;4994688;28;20185;-68